Hauptseite
Satellitenwetter 15-Tage PrognosenKlimaSeewetter Wirbelstürme Blitz FlughäfenFAQ Newsletter Über uns
Wetter : Europa Afrika Nordamerika Südamerika Asien Australien-Ozeanien Andere
Sprachen Kontakt

Frankfurt, Deutschland

Breite: 50-03N, Länge: 008-36E, Höhe: 111 m


METAR: EDDF 021620Z 03007KT 9999 FEW024 SCT030 BKN060 19/14 Q1021 NOSIG
short-TAF: verfallen (51063 Stunden)
long-TAF: EDDF 021100Z 0212/0318 01004KT 9999 SCT045 BECMG 0303/0305 04009KT

Zeit: 18:36 (16:36 UTC)

Beobachtung

Neuester Wetterbericht von vor 16 Minuten, um 16:20 UTC  
Wind 07 kt aus Nord/Nordost
Temperatur 19°C
Luftfeuchtigkeit 73%
Luftdruck 1021 hPa
Sichtweite 10 km oder mehr
leicht bewölkt in der Höhe von 2400 ft
Aufgelockert bewölkt in der Höhe von 3000 ft
Durchbrochene Bewölkung in der Höhe von 6000 ft

Maßeinheiten ändern

Prognose

Neuester Wetterbericht von vor 5 Stunden und 9 Minuten, um 11:27 UTC  
Gültige Prognose vom 02 um 12 UTC bis 03 um 18 UTC
Wind 04 kt aus Nord
Sichtweite 10 km oder mehr
Aufgelockert bewölkt in der Höhe von 4500 ft
Übergehend zu
vom 03 um 03 UTC bis 03 um 05 UTC
Wind 09 kt aus Nordost
Die Angaben auf diesen Webseiten unterliegen einer Erklärung über den Haftungsausschluss
Wetter : Europa Afrika Nordamerika Südamerika Asien Australien-Ozeanien Andere
Satellitenwetter 15-Tage PrognosenKlimaSeewetter Wirbelstürme Blitz FlughäfenFAQ Sprachen Kontakt Newsletter Über uns